sensor_id;sensor_type;location;lat;lon;timestamp;pressure;altitude;pressure_sealevel;temperature;humidity
10958;BME280;5531;42.570;23.676;2023-03-15T00:02:44;91004.16;;;3.04;63.07
10958;BME280;5531;42.570;23.676;2023-03-15T00:05:13;91000.59;;;3.05;63.03
10958;BME280;5531;42.570;23.676;2023-03-15T00:07:42;91000.16;;;3.02;62.83
10958;BME280;5531;42.570;23.676;2023-03-15T00:10:11;91002.56;;;3.03;62.40
10958;BME280;5531;42.570;23.676;2023-03-15T00:12:42;91000.25;;;3.08;62.90
10958;BME280;5531;42.570;23.676;2023-03-15T00:15:12;90994.25;;;3.08;62.64
10958;BME280;5531;42.570;23.676;2023-03-15T00:17:42;90992.13;;;3.11;62.63
10958;BME280;5531;42.570;23.676;2023-03-15T00:20:11;90994.44;;;3.06;63.00
10958;BME280;5531;42.570;23.676;2023-03-15T00:22:41;90984.47;;;3.03;62.82
10958;BME280;5531;42.570;23.676;2023-03-15T00:25:11;90981.22;;;3.01;62.88
10958;BME280;5531;42.570;23.676;2023-03-15T00:27:43;90979.63;;;3.00;62.07
10958;BME280;5531;42.570;23.676;2023-03-15T00:30:12;90984.47;;;3.03;62.78
10958;BME280;5531;42.570;23.676;2023-03-15T00:32:41;90983.03;;;3.01;62.83
10958;BME280;5531;42.570;23.676;2023-03-15T00:35:10;90981.31;;;2.93;63.48
10958;BME280;5531;42.570;23.676;2023-03-15T00:37:43;90978.53;;;2.94;62.46
10958;BME280;5531;42.570;23.676;2023-03-15T00:40:12;90969.56;;;2.90;62.42
10958;BME280;5531;42.570;23.676;2023-03-15T00:42:44;90967.50;;;2.86;63.49
10958;BME280;5531;42.570;23.676;2023-03-15T00:45:17;90963.09;;;2.86;63.14
10958;BME280;5531;42.570;23.676;2023-03-15T00:47:48;90951.63;;;2.89;63.13
10958;BME280;5531;42.570;23.676;2023-03-15T00:50:17;90955.78;;;2.90;62.71
10958;BME280;5531;42.570;23.676;2023-03-15T00:52:47;90945.34;;;2.83;63.32
10958;BME280;5531;42.570;23.676;2023-03-15T00:55:17;90951.88;;;2.79;63.31
10958;BME280;5531;42.570;23.676;2023-03-15T00:57:49;90937.94;;;2.80;63.39
10958;BME280;5531;42.570;23.676;2023-03-15T01:00:20;90942.78;;;2.83;64.50
10958;BME280;5531;42.570;23.676;2023-03-15T01:02:50;90938.41;;;2.84;63.72
10958;BME280;5531;42.570;23.676;2023-03-15T01:05:19;90935.09;;;2.90;63.29
10958;BME280;5531;42.570;23.676;2023-03-15T01:07:48;90933.50;;;2.89;63.60
10958;BME280;5531;42.570;23.676;2023-03-15T01:10:17;90936.72;;;2.91;63.46
10958;BME280;5531;42.570;23.676;2023-03-15T01:12:49;90932.16;;;2.93;63.59
10958;BME280;5531;42.570;23.676;2023-03-15T01:15:18;90935.94;;;2.90;63.75
10958;BME280;5531;42.570;23.676;2023-03-15T01:17:47;90925.03;;;2.95;63.54
10958;BME280;5531;42.570;23.676;2023-03-15T01:20:17;90919.75;;;2.88;63.76
10958;BME280;5531;42.570;23.676;2023-03-15T01:22:46;90923.25;;;2.96;63.05
10958;BME280;5531;42.570;23.676;2023-03-15T01:25:15;90921.09;;;2.99;62.63
10958;BME280;5531;42.570;23.676;2023-03-15T01:27:44;90919.41;;;3.06;62.90
10958;BME280;5531;42.570;23.676;2023-03-15T01:30:15;90909.88;;;3.07;63.47
10958;BME280;5531;42.570;23.676;2023-03-15T01:32:44;90914.78;;;3.17;62.20
10958;BME280;5531;42.570;23.676;2023-03-15T01:35:13;90906.72;;;3.26;62.21
10958;BME280;5531;42.570;23.676;2023-03-15T01:37:42;90902.06;;;3.37;61.39
10958;BME280;5531;42.570;23.676;2023-03-15T01:40:12;90906.63;;;3.35;62.22
10958;BME280;5531;42.570;23.676;2023-03-15T01:42:51;90912.69;;;3.42;60.95
10958;BME280;5531;42.570;23.676;2023-03-15T01:48:37;90900.28;;;3.52;61.55
10958;BME280;5531;42.570;23.676;2023-03-15T01:51:13;90901.59;;;3.48;62.17
10958;BME280;5531;42.570;23.676;2023-03-15T01:53:47;90907.22;;;3.52;61.77
10958;BME280;5531;42.570;23.676;2023-03-15T01:56:18;90909.34;;;3.63;61.32
10958;BME280;5531;42.570;23.676;2023-03-15T01:58:50;90906.19;;;3.67;61.95
10958;BME280;5531;42.570;23.676;2023-03-15T02:01:20;90898.84;;;3.71;62.10
10958;BME280;5531;42.570;23.676;2023-03-15T02:03:55;90900.47;;;3.72;60.87
10958;BME280;5531;42.570;23.676;2023-03-15T02:06:26;90902.94;;;3.80;61.24
10958;BME280;5531;42.570;23.676;2023-03-15T02:09:02;90894.88;;;3.90;60.91
10958;BME280;5531;42.570;23.676;2023-03-15T02:11:33;90894.56;;;4.00;60.55
10958;BME280;5531;42.570;23.676;2023-03-15T02:14:04;90890.53;;;3.76;60.50
10958;BME280;5531;42.570;23.676;2023-03-15T02:16:34;90891.03;;;3.64;61.35
10958;BME280;5531;42.570;23.676;2023-03-15T02:19:11;90893.63;;;3.64;61.64
10958;BME280;5531;42.570;23.676;2023-03-15T02:21:56;90884.03;;;3.43;61.62
10958;BME280;5531;42.570;23.676;2023-03-15T02:24:33;90862.91;;;3.25;63.05
10958;BME280;5531;42.570;23.676;2023-03-15T02:27:08;90863.84;;;3.02;63.77
10958;BME280;5531;42.570;23.676;2023-03-15T02:29:40;90868.13;;;2.95;64.70
10958;BME280;5531;42.570;23.676;2023-03-15T02:32:09;90865.56;;;2.95;64.10
10958;BME280;5531;42.570;23.676;2023-03-15T02:34:38;90865.56;;;2.95;64.67
10958;BME280;5531;42.570;23.676;2023-03-15T02:37:07;90870.81;;;2.87;64.91
10958;BME280;5531;42.570;23.676;2023-03-15T02:39:36;90868.22;;;2.87;65.11
10958;BME280;5531;42.570;23.676;2023-03-15T02:42:06;90870.34;;;2.83;65.48
10958;BME280;5531;42.570;23.676;2023-03-15T02:44:40;90859.66;;;2.71;66.12
10958;BME280;5531;42.570;23.676;2023-03-15T02:47:14;90843.44;;;2.63;66.27
10958;BME280;5531;42.570;23.676;2023-03-15T02:49:48;90844.59;;;2.60;66.80
10958;BME280;5531;42.570;23.676;2023-03-15T02:52:18;90842.00;;;2.60;66.84
10958;BME280;5531;42.570;23.676;2023-03-15T02:54:47;90848.78;;;2.61;66.77
10958;BME280;5531;42.570;23.676;2023-03-15T02:57:17;90844.22;;;2.63;67.27
10958;BME280;5531;42.570;23.676;2023-03-15T02:59:49;90843.34;;;2.56;67.41
10958;BME280;5531;42.570;23.676;2023-03-15T03:02:20;90843.28;;;2.64;67.31
10958;BME280;5531;42.570;23.676;2023-03-15T03:04:49;90842.44;;;2.64;66.98
10958;BME280;5531;42.570;23.676;2023-03-15T03:07:18;90844.78;;;2.59;67.10
10958;BME280;5531;42.570;23.676;2023-03-15T03:09:47;90838.63;;;2.60;67.28
10958;BME280;5531;42.570;23.676;2023-03-15T03:12:16;90836.91;;;2.52;67.80
10958;BME280;5531;42.570;23.676;2023-03-15T03:14:45;90824.25;;;2.42;68.16
10958;BME280;5531;42.570;23.676;2023-03-15T03:17:17;90820.78;;;2.35;68.29
10958;BME280;5531;42.570;23.676;2023-03-15T03:19:46;90813.41;;;2.32;69.00
10958;BME280;5531;42.570;23.676;2023-03-15T03:22:15;90808.84;;;2.34;68.36
10958;BME280;5531;42.570;23.676;2023-03-15T03:24:44;90809.03;;;2.32;68.34
10958;BME280;5531;42.570;23.676;2023-03-15T03:27:13;90806.00;;;2.29;68.88
10958;BME280;5531;42.570;23.676;2023-03-15T03:29:43;90801.34;;;2.24;69.22
10958;BME280;5531;42.570;23.676;2023-03-15T03:32:12;90800.47;;;2.17;68.99
10958;BME280;5531;42.570;23.676;2023-03-15T03:34:44;90801.09;;;2.19;69.12
10958;BME280;5531;42.570;23.676;2023-03-15T03:37:13;90800.81;;;2.14;69.36
10958;BME280;5531;42.570;23.676;2023-03-15T03:39:42;90804.97;;;2.15;69.30
10958;BME280;5531;42.570;23.676;2023-03-15T03:42:12;90815.66;;;2.12;68.80
10958;BME280;5531;42.570;23.676;2023-03-15T03:44:41;90805.28;;;2.20;68.57
10958;BME280;5531;42.570;23.676;2023-03-15T03:47:11;90801.69;;;2.21;68.36
10958;BME280;5531;42.570;23.676;2023-03-15T03:49:40;90801.59;;;2.14;68.58
10958;BME280;5531;42.570;23.676;2023-03-15T03:52:11;90791.09;;;2.16;68.89
10958;BME280;5531;42.570;23.676;2023-03-15T03:54:40;90787.97;;;2.06;69.50
10958;BME280;5531;42.570;23.676;2023-03-15T03:57:10;90785.75;;;2.03;69.73
10958;BME280;5531;42.570;23.676;2023-03-15T03:59:39;90788.59;;;2.08;69.99
10958;BME280;5531;42.570;23.676;2023-03-15T04:02:08;90787.16;;;2.05;70.61
10958;BME280;5531;42.570;23.676;2023-03-15T04:04:37;90786.38;;;2.05;70.37
10958;BME280;5531;42.570;23.676;2023-03-15T04:07:06;90781.13;;;2.13;69.92
10958;BME280;5531;42.570;23.676;2023-03-15T04:09:38;90782.72;;;2.14;70.15
10958;BME280;5531;42.570;23.676;2023-03-15T04:12:08;90790.94;;;2.17;70.44
10958;BME280;5531;42.570;23.676;2023-03-15T04:14:37;90773.47;;;2.19;70.28
10958;BME280;5531;42.570;23.676;2023-03-15T04:17:06;90771.88;;;2.18;70.83
10958;BME280;5531;42.570;23.676;2023-03-15T04:19:36;90768.47;;;2.18;71.51
10958;BME280;5531;42.570;23.676;2023-03-15T04:22:05;90759.50;;;2.14;71.32
10958;BME280;5531;42.570;23.676;2023-03-15T04:24:34;90760.91;;;2.16;71.99
10958;BME280;5531;42.570;23.676;2023-03-15T04:27:07;90760.72;;;2.18;72.10
10958;BME280;5531;42.570;23.676;2023-03-15T04:29:40;90756.25;;;2.12;72.21
10958;BME280;5531;42.570;23.676;2023-03-15T04:32:10;90752.78;;;2.05;72.68
10958;BME280;5531;42.570;23.676;2023-03-15T04:34:40;90752.16;;;2.03;72.32
10958;BME280;5531;42.570;23.676;2023-03-15T04:37:09;90752.78;;;2.05;72.38
10958;BME280;5531;42.570;23.676;2023-03-15T04:39:38;90757.00;;;2.06;72.84
10958;BME280;5531;42.570;23.676;2023-03-15T04:42:10;90765.78;;;1.96;72.93
10958;BME280;5531;42.570;23.676;2023-03-15T04:44:39;90761.75;;;1.94;72.53
10958;BME280;5531;42.570;23.676;2023-03-15T04:47:08;90767.66;;;2.03;73.17
10958;BME280;5531;42.570;23.676;2023-03-15T04:49:37;90765.97;;;1.95;73.34
10958;BME280;5531;42.570;23.676;2023-03-15T04:52:06;90774.22;;;1.90;73.64
10958;BME280;5531;42.570;23.676;2023-03-15T04:54:35;90759.34;;;1.92;73.50
10958;BME280;5531;42.570;23.676;2023-03-15T04:57:04;90756.59;;;1.94;73.54
10958;BME280;5531;42.570;23.676;2023-03-15T04:59:36;90761.81;;;2.09;73.29
10958;BME280;5531;42.570;23.676;2023-03-15T05:02:05;90758.41;;;2.08;72.85
10958;BME280;5531;42.570;23.676;2023-03-15T05:04:34;90771.75;;;2.12;73.24
10958;BME280;5531;42.570;23.676;2023-03-15T05:07:03;90765.63;;;2.13;72.95
10958;BME280;5531;42.570;23.676;2023-03-15T05:09:32;90762.84;;;2.14;72.68
10958;BME280;5531;42.570;23.676;2023-03-15T05:12:04;90765.53;;;2.21;72.43
10958;BME280;5531;42.570;23.676;2023-03-15T05:14:33;90767.06;;;2.15;73.03
10958;BME280;5531;42.570;23.676;2023-03-15T05:17:04;90765.72;;;2.19;73.84
10958;BME280;5531;42.570;23.676;2023-03-15T05:19:34;90752.53;;;2.29;72.72
10958;BME280;5531;42.570;23.676;2023-03-15T05:22:03;90766.69;;;2.33;73.23
10958;BME280;5531;42.570;23.676;2023-03-15T05:24:32;90753.69;;;2.42;73.22
10958;BME280;5531;42.570;23.676;2023-03-15T05:27:01;90758.94;;;2.48;72.38
10958;BME280;5531;42.570;23.676;2023-03-15T05:29:30;90763.09;;;2.49;72.90
10958;BME280;5531;42.570;23.676;2023-03-15T05:31:59;90761.44;;;2.56;73.18
10958;BME280;5531;42.570;23.676;2023-03-15T05:34:32;90771.75;;;2.71;73.33
10958;BME280;5531;42.570;23.676;2023-03-15T05:37:01;90758.84;;;2.93;72.24
10958;BME280;5531;42.570;23.676;2023-03-15T05:39:30;90771.69;;;3.01;72.01
10958;BME280;5531;42.570;23.676;2023-03-15T05:42:00;90761.78;;;3.05;71.27
10958;BME280;5531;42.570;23.676;2023-03-15T05:44:29;90758.03;;;3.07;71.10
10958;BME280;5531;42.570;23.676;2023-03-15T05:46:58;90751.44;;;3.05;71.50
10958;BME280;5531;42.570;23.676;2023-03-15T05:49:27;90754.28;;;3.10;71.47
10958;BME280;5531;42.570;23.676;2023-03-15T05:51:59;90765.53;;;3.24;71.01
10958;BME280;5531;42.570;23.676;2023-03-15T05:54:28;90759.81;;;3.28;70.59
10958;BME280;5531;42.570;23.676;2023-03-15T05:56:57;90763.56;;;3.26;70.86
10958;BME280;5531;42.570;23.676;2023-03-15T05:59:26;90750.44;;;3.27;71.10
10958;BME280;5531;42.570;23.676;2023-03-15T06:01:55;90739.47;;;3.25;70.75
10958;BME280;5531;42.570;23.676;2023-03-15T06:04:24;90732.78;;;3.31;71.39
10958;BME280;5531;42.570;23.676;2023-03-15T06:06:53;90745.16;;;3.36;71.24
10958;BME280;5531;42.570;23.676;2023-03-15T06:09:25;90751.38;;;3.41;71.51
10958;BME280;5531;42.570;23.676;2023-03-15T06:11:54;90752.81;;;3.44;70.92
10958;BME280;5531;42.570;23.676;2023-03-15T06:14:24;90758.59;;;3.46;71.01
10958;BME280;5531;42.570;23.676;2023-03-15T06:16:53;90755.41;;;3.44;71.40
10958;BME280;5531;42.570;23.676;2023-03-15T06:19:22;90767.41;;;3.52;71.20
10958;BME280;5531;42.570;23.676;2023-03-15T06:21:51;90769.06;;;3.59;71.60
10958;BME280;5531;42.570;23.676;2023-03-15T06:24:20;90773.13;;;3.69;71.35
10958;BME280;5531;42.570;23.676;2023-03-15T06:26:52;90778.19;;;3.77;71.65
10958;BME280;5531;42.570;23.676;2023-03-15T06:29:22;90773.53;;;3.94;71.19
10958;BME280;5531;42.570;23.676;2023-03-15T06:31:51;90770.84;;;4.09;70.84
10958;BME280;5531;42.570;23.676;2023-03-15T06:34:20;90766.16;;;4.19;70.08
10958;BME280;5531;42.570;23.676;2023-03-15T06:36:49;90767.53;;;4.21;70.58
10958;BME280;5531;42.570;23.676;2023-03-15T06:39:19;90762.22;;;4.30;70.85
10958;BME280;5531;42.570;23.676;2023-03-15T06:41:48;90766.09;;;4.47;69.83
10958;BME280;5531;42.570;23.676;2023-03-15T06:44:21;90750.84;;;4.66;69.39
10958;BME280;5531;42.570;23.676;2023-03-15T06:46:50;90743.25;;;4.71;69.06
10958;BME280;5531;42.570;23.676;2023-03-15T06:49:19;90748.59;;;4.56;69.23
10958;BME280;5531;42.570;23.676;2023-03-15T06:51:48;90736.34;;;4.43;69.37
10958;BME280;5531;42.570;23.676;2023-03-15T06:54:17;90733.34;;;4.39;69.83
10958;BME280;5531;42.570;23.676;2023-03-15T06:56:46;90729.19;;;4.45;70.92
10958;BME280;5531;42.570;23.676;2023-03-15T06:59:15;90731.56;;;4.40;70.96
10958;BME280;5531;42.570;23.676;2023-03-15T07:01:47;90738.75;;;4.45;72.06
10958;BME280;5531;42.570;23.676;2023-03-15T07:04:16;90749.25;;;4.30;71.10
10958;BME280;5531;42.570;23.676;2023-03-15T07:06:49;90741.78;;;4.48;71.90
10958;BME280;5531;42.570;23.676;2023-03-15T07:09:18;90750.16;;;4.50;71.24
10958;BME280;5531;42.570;23.676;2023-03-15T07:11:48;90760.16;;;4.53;71.39
10958;BME280;5531;42.570;23.676;2023-03-15T07:14:16;90752.44;;;4.67;70.68
10958;BME280;5531;42.570;23.676;2023-03-15T07:16:49;90757.13;;;4.91;70.79
10958;BME280;5531;42.570;23.676;2023-03-15T07:19:18;90757.16;;;5.05;71.00
10958;BME280;5531;42.570;23.676;2023-03-15T07:21:47;90760.31;;;4.93;68.51
10958;BME280;5531;42.570;23.676;2023-03-15T07:24:16;90767.09;;;4.88;69.31
10958;BME280;5531;42.570;23.676;2023-03-15T07:26:45;90748.97;;;5.01;68.93
10958;BME280;5531;42.570;23.676;2023-03-15T07:29:19;90756.41;;;5.18;67.69
10958;BME280;5531;42.570;23.676;2023-03-15T07:31:51;90754.88;;;5.30;68.89
10958;BME280;5531;42.570;23.676;2023-03-15T07:34:20;90751.69;;;5.35;67.37
10958;BME280;5531;42.570;23.676;2023-03-15T07:36:49;90734.06;;;5.23;66.09
10958;BME280;5531;42.570;23.676;2023-03-15T07:39:18;90735.25;;;5.14;67.04
10958;BME280;5531;42.570;23.676;2023-03-15T07:41:48;90741.66;;;5.25;67.70
10958;BME280;5531;42.570;23.676;2023-03-15T07:44:17;90751.06;;;5.32;66.92
10958;BME280;5531;42.570;23.676;2023-03-15T07:46:46;90756.28;;;5.46;66.76
10958;BME280;5531;42.570;23.676;2023-03-15T07:49:18;90744.31;;;5.51;66.42
10958;BME280;5531;42.570;23.676;2023-03-15T07:51:47;90739.31;;;5.50;66.14
10958;BME280;5531;42.570;23.676;2023-03-15T07:54:17;90728.53;;;5.46;65.61
10958;BME280;5531;42.570;23.676;2023-03-15T07:56:46;90733.53;;;5.75;66.18
10958;BME280;5531;42.570;23.676;2023-03-15T07:59:17;90726.53;;;5.95;64.68
10958;BME280;5531;42.570;23.676;2023-03-15T08:01:47;90719.16;;;6.05;64.62
10958;BME280;5531;42.570;23.676;2023-03-15T08:04:19;90725.56;;;6.10;64.35
10958;BME280;5531;42.570;23.676;2023-03-15T08:06:48;90733.97;;;6.12;63.10
10958;BME280;5531;42.570;23.676;2023-03-15T08:09:17;90728.34;;;6.21;64.18
10958;BME280;5531;42.570;23.676;2023-03-15T08:11:46;90719.72;;;6.41;63.96
10958;BME280;5531;42.570;23.676;2023-03-15T08:14:15;90734.03;;;6.77;62.51
10958;BME280;5531;42.570;23.676;2023-03-15T08:16:44;90732.00;;;6.79;61.42
10958;BME280;5531;42.570;23.676;2023-03-15T08:19:13;90724.53;;;6.89;61.19
10958;BME280;5531;42.570;23.676;2023-03-15T08:21:45;90721.03;;;7.22;62.19
10958;BME280;5531;42.570;23.676;2023-03-15T08:24:14;90710.00;;;7.52;60.60
10958;BME280;5531;42.570;23.676;2023-03-15T08:26:43;90702.06;;;7.40;59.63
10958;BME280;5531;42.570;23.676;2023-03-15T08:29:12;90712.16;;;7.62;59.63
10958;BME280;5531;42.570;23.676;2023-03-15T08:31:41;90709.91;;;7.65;57.97
10958;BME280;5531;42.570;23.676;2023-03-15T08:34:10;90711.31;;;7.68;58.76
10958;BME280;5531;42.570;23.676;2023-03-15T08:36:40;90716.63;;;8.05;59.07
10958;BME280;5531;42.570;23.676;2023-03-15T08:39:12;90726.75;;;7.95;57.40
10958;BME280;5531;42.570;23.676;2023-03-15T08:41:42;90734.34;;;7.71;56.84
10958;BME280;5531;42.570;23.676;2023-03-15T08:44:12;90730.16;;;7.70;58.10
10958;BME280;5531;42.570;23.676;2023-03-15T08:46:41;90727.84;;;7.80;57.66
10958;BME280;5531;42.570;23.676;2023-03-15T08:49:09;90729.03;;;7.84;58.52
10958;BME280;5531;42.570;23.676;2023-03-15T08:51:38;90735.28;;;8.08;59.09
10958;BME280;5531;42.570;23.676;2023-03-15T08:54:07;90745.69;;;8.34;57.35
10958;BME280;5531;42.570;23.676;2023-03-15T08:56:41;90741.47;;;8.33;56.60
10958;BME280;5531;42.570;23.676;2023-03-15T08:59:10;90739.84;;;8.38;56.20
10958;BME280;5531;42.570;23.676;2023-03-15T09:01:40;90735.09;;;8.29;55.52
10958;BME280;5531;42.570;23.676;2023-03-15T09:04:09;90737.13;;;8.26;56.91
10958;BME280;5531;42.570;23.676;2023-03-15T09:06:38;90729.47;;;8.32;56.47
10958;BME280;5531;42.570;23.676;2023-03-15T09:09:08;90743.41;;;8.19;55.99
10958;BME280;5531;42.570;23.676;2023-03-15T09:11:37;90732.28;;;8.30;57.24
10958;BME280;5531;42.570;23.676;2023-03-15T09:14:08;90741.97;;;8.48;56.54
10958;BME280;5531;42.570;23.676;2023-03-15T09:16:37;90734.59;;;8.45;56.10
10958;BME280;5531;42.570;23.676;2023-03-15T09:19:07;90741.66;;;8.38;55.77
10958;BME280;5531;42.570;23.676;2023-03-15T09:21:36;90746.63;;;8.46;55.35
10958;BME280;5531;42.570;23.676;2023-03-15T09:24:05;90752.94;;;8.32;55.30
10958;BME280;5531;42.570;23.676;2023-03-15T09:26:34;90739.41;;;8.41;57.00
10958;BME280;5531;42.570;23.676;2023-03-15T09:29:03;90740.97;;;8.49;56.23
10958;BME280;5531;42.570;23.676;2023-03-15T09:31:37;90727.50;;;8.27;56.44
10958;BME280;5531;42.570;23.676;2023-03-15T09:34:06;90740.44;;;8.15;56.47
10958;BME280;5531;42.570;23.676;2023-03-15T09:36:35;90734.47;;;8.08;57.20
10958;BME280;5531;42.570;23.676;2023-03-15T09:39:04;90739.59;;;8.21;57.40
10958;BME280;5531;42.570;23.676;2023-03-15T09:41:40;90736.22;;;8.39;57.94
10958;BME280;5531;42.570;23.676;2023-03-15T09:44:28;90721.19;;;8.60;57.86
10958;BME280;5531;42.570;23.676;2023-03-15T09:47:10;90718.56;;;8.60;57.17
10958;BME280;5531;42.570;23.676;2023-03-15T09:49:47;90726.94;;;8.69;56.79
10958;BME280;5531;42.570;23.676;2023-03-15T09:52:29;90723.72;;;8.67;57.40
10958;BME280;5531;42.570;23.676;2023-03-15T09:55:04;90729.81;;;8.79;56.75
10958;BME280;5531;42.570;23.676;2023-03-15T09:57:40;90722.78;;;8.79;56.34
10958;BME280;5531;42.570;23.676;2023-03-15T10:00:14;90721.25;;;8.72;56.05
10958;BME280;5531;42.570;23.676;2023-03-15T10:02:54;90718.94;;;8.82;58.14
10958;BME280;5531;42.570;23.676;2023-03-15T10:05:36;90718.44;;;8.92;56.74
10958;BME280;5531;42.570;23.676;2023-03-15T10:08:11;90721.53;;;9.01;56.61
10958;BME280;5531;42.570;23.676;2023-03-15T10:10:46;90721.91;;;9.04;57.35
10958;BME280;5531;42.570;23.676;2023-03-15T10:13:27;90717.72;;;9.03;57.14
10958;BME280;5531;42.570;23.676;2023-03-15T10:16:14;90712.88;;;9.18;56.89
10958;BME280;5531;42.570;23.676;2023-03-15T10:19:00;90711.03;;;9.38;57.88
10958;BME280;5531;42.570;23.676;2023-03-15T10:21:37;90718.22;;;9.42;56.47
10958;BME280;5531;42.570;23.676;2023-03-15T10:24:17;90716.06;;;9.21;56.21
10958;BME280;5531;42.570;23.676;2023-03-15T10:26:49;90717.69;;;9.22;57.34
10958;BME280;5531;42.570;23.676;2023-03-15T10:29:20;90711.75;;;9.45;58.04
10958;BME280;5531;42.570;23.676;2023-03-15T10:31:53;90706.78;;;9.55;56.48
10958;BME280;5531;42.570;23.676;2023-03-15T10:34:25;90709.03;;;9.51;56.23
10958;BME280;5531;42.570;23.676;2023-03-15T10:36:55;90694.59;;;9.49;56.39
10958;BME280;5531;42.570;23.676;2023-03-15T10:39:24;90704.22;;;9.67;57.29
10958;BME280;5531;42.570;23.676;2023-03-15T10:41:53;90697.47;;;9.59;55.20
10958;BME280;5531;42.570;23.676;2023-03-15T10:44:24;90696.91;;;9.57;55.02
10958;BME280;5531;42.570;23.676;2023-03-15T10:47:01;90694.47;;;9.44;55.57
10958;BME280;5531;42.570;23.676;2023-03-15T10:49:38;90688.22;;;9.45;54.88
10958;BME280;5531;42.570;23.676;2023-03-15T10:52:26;90678.47;;;9.52;56.17
10958;BME280;5531;42.570;23.676;2023-03-15T10:54:56;90676.00;;;9.57;55.33
10958;BME280;5531;42.570;23.676;2023-03-15T10:57:33;90685.41;;;9.58;55.87
10958;BME280;5531;42.570;23.676;2023-03-15T11:00:16;90683.47;;;9.53;55.91
10958;BME280;5531;42.570;23.676;2023-03-15T11:03:00;90683.94;;;9.50;55.95
10958;BME280;5531;42.570;23.676;2023-03-15T11:05:39;90695.13;;;9.39;55.16
10958;BME280;5531;42.570;23.676;2023-03-15T11:08:12;90684.28;;;9.24;55.66
10958;BME280;5531;42.570;23.676;2023-03-15T11:10:42;90681.84;;;9.10;56.37
10958;BME280;5531;42.570;23.676;2023-03-15T11:13:17;90687.78;;;9.17;56.73
10958;BME280;5531;42.570;23.676;2023-03-15T11:15:54;90684.66;;;9.09;56.58
10958;BME280;5531;42.570;23.676;2023-03-15T11:18:29;90690.16;;;9.19;56.84
10958;BME280;5531;42.570;23.676;2023-03-15T11:21:04;90686.50;;;9.08;57.76
10958;BME280;5531;42.570;23.676;2023-03-15T11:23:37;90677.00;;;8.95;56.55
10958;BME280;5531;42.570;23.676;2023-03-15T11:26:14;90678.22;;;9.11;57.48
10958;BME280;5531;42.570;23.676;2023-03-15T11:28:50;90693.28;;;9.09;57.59
10958;BME280;5531;42.570;23.676;2023-03-15T11:31:20;90678.81;;;8.95;56.98
10958;BME280;5531;42.570;23.676;2023-03-15T11:33:52;90681.13;;;9.03;56.63
10958;BME280;5531;42.570;23.676;2023-03-15T11:36:30;90676.09;;;9.20;57.49
10958;BME280;5531;42.570;23.676;2023-03-15T11:39:01;90675.03;;;9.40;57.63
10958;BME280;5531;42.570;23.676;2023-03-15T11:41:35;90671.84;;;9.38;56.54
10958;BME280;5531;42.570;23.676;2023-03-15T11:44:12;90680.50;;;9.50;56.15
10958;BME280;5531;42.570;23.676;2023-03-15T11:46:48;90688.34;;;9.50;56.08
10958;BME280;5531;42.570;23.676;2023-03-15T11:49:24;90680.06;;;9.53;56.48
10958;BME280;5531;42.570;23.676;2023-03-15T11:52:00;90664.97;;;9.67;56.58
10958;BME280;5531;42.570;23.676;2023-03-15T11:54:30;90664.22;;;9.78;55.29
10958;BME280;5531;42.570;23.676;2023-03-15T11:57:01;90673.28;;;9.76;54.28
10958;BME280;5531;42.570;23.676;2023-03-15T11:59:32;90670.34;;;9.72;53.59
10958;BME280;5531;42.570;23.676;2023-03-15T12:02:35;90663.06;;;9.86;55.25
10958;BME280;5531;42.570;23.676;2023-03-15T12:05:05;90660.81;;;9.89;53.94
10958;BME280;5531;42.570;23.676;2023-03-15T12:07:56;90648.53;;;9.78;53.48
10958;BME280;5531;42.570;23.676;2023-03-15T12:10:33;90642.13;;;9.74;54.23
10958;BME280;5531;42.570;23.676;2023-03-15T12:13:19;90657.59;;;9.76;54.95
10958;BME280;5531;42.570;23.676;2023-03-15T12:15:51;90662.03;;;9.75;55.22
10958;BME280;5531;42.570;23.676;2023-03-15T12:18:38;90654.53;;;9.90;56.19
10958;BME280;5531;42.570;23.676;2023-03-15T12:21:16;90646.13;;;10.00;55.14
10958;BME280;5531;42.570;23.676;2023-03-15T12:23:57;90643.53;;;10.12;53.46
10958;BME280;5531;42.570;23.676;2023-03-15T12:26:39;90646.38;;;10.11;54.86
10958;BME280;5531;42.570;23.676;2023-03-15T12:29:21;90643.88;;;10.16;53.56
10958;BME280;5531;42.570;23.676;2023-03-15T12:31:57;90638.53;;;10.46;54.42
10958;BME280;5531;42.570;23.676;2023-03-15T12:34:36;90634.72;;;10.66;52.71
10958;BME280;5531;42.570;23.676;2023-03-15T12:37:15;90639.97;;;10.77;53.13
10958;BME280;5531;42.570;23.676;2023-03-15T12:39:49;90644.16;;;10.78;52.14
10958;BME280;5531;42.570;23.676;2023-03-15T12:48:26;90639.09;;;11.00;49.99
10958;BME280;5531;42.570;23.676;2023-03-15T12:51:00;90636.91;;;11.09;50.66
10958;BME280;5531;42.570;23.676;2023-03-15T12:53:56;90642.50;;;11.01;51.59
10958;BME280;5531;42.570;23.676;2023-03-15T12:56:44;90622.69;;;11.05;52.40
10958;BME280;5531;42.570;23.676;2023-03-15T12:59:19;90635.09;;;11.10;52.03
10958;BME280;5531;42.570;23.676;2023-03-15T13:01:50;90624.69;;;11.15;51.73
10958;BME280;5531;42.570;23.676;2023-03-15T13:04:20;90624.59;;;11.10;51.12
10958;BME280;5531;42.570;23.676;2023-03-15T13:06:57;90621.59;;;10.89;52.65
10958;BME280;5531;42.570;23.676;2023-03-15T13:09:58;90632.34;;;10.76;53.19
10958;BME280;5531;42.570;23.676;2023-03-15T13:12:37;90630.78;;;10.51;53.92
10958;BME280;5531;42.570;23.676;2023-03-15T13:15:11;90629.53;;;10.30;54.07
10958;BME280;5531;42.570;23.676;2023-03-15T13:17:48;90632.59;;;10.51;54.79
10958;BME280;5531;42.570;23.676;2023-03-15T13:23:14;90637.97;;;10.32;54.92
10958;BME280;5531;42.570;23.676;2023-03-15T13:25:59;90630.78;;;10.39;55.08
10958;BME280;5531;42.570;23.676;2023-03-15T13:28:36;90633.28;;;10.46;54.89
10958;BME280;5531;42.570;23.676;2023-03-15T13:31:11;90635.44;;;10.61;55.10
10958;BME280;5531;42.570;23.676;2023-03-15T13:33:42;90628.94;;;10.63;54.59
10958;BME280;5531;42.570;23.676;2023-03-15T13:36:16;90638.16;;;10.54;54.20
10958;BME280;5531;42.570;23.676;2023-03-15T13:38:49;90638.06;;;10.25;54.75
10958;BME280;5531;42.570;23.676;2023-03-15T13:41:19;90629.91;;;10.34;55.99
10958;BME280;5531;42.570;23.676;2023-03-15T13:43:53;90623.59;;;10.23;55.53
10958;BME280;5531;42.570;23.676;2023-03-15T13:46:24;90629.53;;;10.18;55.84
10958;BME280;5531;42.570;23.676;2023-03-15T13:48:54;90636.00;;;10.27;55.67